Time,TemperatureF,DewpointF,PressureIn,WindDirection,WindDirectionDegrees,WindSpeedMPH,WindSpeedGustMPH,Humidity,HourlyPrecipIn,Conditions,Clouds,dailyrainin,SoftwareType,DateUTC
2013-01-16 00:02:00,25.5,23.2,29.78,NNW,338,0.0,0.0,91,0.00,,,0.00,meteohub,2013-01-16 00:02:00,
2013-01-16 00:07:00,25.5,23.5,29.78,NNW,338,0.0,0.0,92,0.00,,,0.00,meteohub,2013-01-16 00:07:00,
2013-01-16 00:12:00,25.5,23.5,29.78,NNW,338,0.0,0.0,92,0.00,,,0.00,meteohub,2013-01-16 00:12:00,
2013-01-16 00:17:00,25.3,23.4,29.78,NNW,338,0.0,0.0,92,0.00,,,0.00,meteohub,2013-01-16 00:17:00,
2013-01-16 00:22:00,25.2,23.2,29.78,NNW,338,0.0,0.0,92,0.00,,,0.00,meteohub,2013-01-16 00:22:00,
2013-01-16 00:27:00,25.2,23.2,29.78,NNW,338,0.0,0.0,92,0.00,,,0.00,meteohub,2013-01-16 00:27:00,
2013-01-16 00:32:00,25.0,23.0,29.78,NNW,338,0.0,0.0,92,0.00,,,0.00,meteohub,2013-01-16 00:32:00,
2013-01-16 00:37:00,24.6,22.6,29.78,NNW,338,0.0,0.0,92,0.00,,,0.00,meteohub,2013-01-16 00:37:00,
2013-01-16 00:42:00,24.4,22.5,29.78,NNW,338,0.0,0.0,92,0.00,,,0.00,meteohub,2013-01-16 00:42:00,
2013-01-16 00:47:00,24.4,22.5,29.78,NNW,338,0.0,0.0,92,0.00,,,0.00,meteohub,2013-01-16 00:47:00,
2013-01-16 00:52:00,24.4,22.5,29.78,NNW,338,0.0,0.0,92,0.00,,,0.00,meteohub,2013-01-16 00:52:00,
2013-01-16 00:57:00,24.4,22.5,29.78,NNW,338,0.0,0.0,92,0.00,,,0.00,meteohub,2013-01-16 00:57:00,
2013-01-16 01:02:00,24.3,22.3,29.78,NNW,338,0.0,0.0,92,0.00,,,0.00,meteohub,2013-01-16 01:02:00,
2013-01-16 01:07:00,24.4,22.6,29.78,NNW,338,0.0,0.0,93,0.00,,,0.00,meteohub,2013-01-16 01:07:00,
2013-01-16 01:12:00,25.2,23.4,29.78,NNW,338,0.0,0.0,93,0.00,,,0.00,meteohub,2013-01-16 01:12:00,
2013-01-16 01:17:00,25.5,23.7,29.78,NNW,338,0.0,0.0,93,0.00,,,0.00,meteohub,2013-01-16 01:17:00,
2013-01-16 01:22:00,25.3,23.5,29.75,NNW,338,0.0,0.0,93,0.00,,,0.00,meteohub,2013-01-16 01:22:00,
2013-01-16 01:27:00,25.2,23.4,29.75,NNW,338,0.0,0.0,93,0.00,,,0.00,meteohub,2013-01-16 01:27:00,
2013-01-16 01:32:00,25.3,23.5,29.75,NNW,338,0.0,0.0,93,0.00,,,0.00,meteohub,2013-01-16 01:32:00,
2013-01-16 01:37:00,25.2,23.4,29.75,NNW,338,0.0,0.0,93,0.00,,,0.00,meteohub,2013-01-16 01:37:00,
2013-01-16 01:42:00,25.0,23.2,29.75,NNW,338,0.0,0.0,93,0.00,,,0.00,meteohub,2013-01-16 01:42:00,
2013-01-16 01:47:00,25.2,23.7,29.75,NNW,338,0.0,0.0,94,0.00,,,0.00,meteohub,2013-01-16 01:47:00,
2013-01-16 01:52:00,25.0,23.5,29.78,NNW,338,0.0,0.0,94,0.00,,,0.00,meteohub,2013-01-16 01:52:00,
2013-01-16 01:57:00,24.8,23.4,29.78,NNW,338,0.0,0.0,94,0.00,,,0.00,meteohub,2013-01-16 01:57:00,
2013-01-16 02:02:00,24.6,23.2,29.78,NNW,338,0.0,0.0,94,0.00,,,0.00,meteohub,2013-01-16 02:02:00,
2013-01-16 02:07:00,24.4,23.0,29.78,NNW,338,0.0,0.0,94,0.00,,,0.00,meteohub,2013-01-16 02:07:00,
2013-01-16 02:12:00,24.3,22.8,29.78,NNW,338,0.0,0.0,94,0.00,,,0.00,meteohub,2013-01-16 02:12:00,
2013-01-16 02:17:00,24.1,22.6,29.78,NNW,338,0.0,0.0,94,0.00,,,0.00,meteohub,2013-01-16 02:17:00,
2013-01-16 02:22:00,24.1,22.6,29.75,NNW,338,0.0,0.0,94,0.00,,,0.00,meteohub,2013-01-16 02:22:00,
2013-01-16 02:27:00,24.1,22.6,29.75,NNW,338,0.0,0.0,94,0.00,,,0.00,meteohub,2013-01-16 02:27:00,
2013-01-16 02:32:00,23.9,22.5,29.75,NNW,338,0.0,0.0,94,0.00,,,0.00,meteohub,2013-01-16 02:32:00,
2013-01-16 02:37:00,23.7,22.3,29.75,NNW,338,0.0,0.0,94,0.00,,,0.00,meteohub,2013-01-16 02:37:00,
2013-01-16 02:42:00,23.9,22.5,29.75,NNW,338,0.0,0.0,94,0.00,,,0.00,meteohub,2013-01-16 02:42:00,
2013-01-16 02:47:00,23.9,22.5,29.75,NNW,338,0.0,0.0,94,0.00,,,0.00,meteohub,2013-01-16 02:47:00,
2013-01-16 02:52:00,23.7,22.3,29.75,NNW,338,0.0,0.0,94,0.00,,,0.00,meteohub,2013-01-16 02:52:00,
2013-01-16 02:57:00,23.5,22.1,29.75,NNW,338,0.0,0.0,94,0.00,,,0.00,meteohub,2013-01-16 02:57:00,
2013-01-16 03:02:00,23.5,22.1,29.75,NNW,338,0.0,0.0,94,0.00,,,0.00,meteohub,2013-01-16 03:02:00,
2013-01-16 03:07:00,23.5,22.1,29.75,NNW,338,0.0,0.0,94,0.00,,,0.00,meteohub,2013-01-16 03:07:00,
2013-01-16 03:12:00,23.5,22.1,29.75,NNW,338,0.0,0.0,94,0.00,,,0.00,meteohub,2013-01-16 03:12:00,
2013-01-16 03:17:00,23.5,22.1,29.75,NNW,338,0.0,0.0,94,0.00,,,0.00,meteohub,2013-01-16 03:17:00,
2013-01-16 03:22:00,23.7,22.3,29.75,NNW,338,0.0,0.0,94,0.00,,,0.00,meteohub,2013-01-16 03:22:00,
2013-01-16 03:27:00,24.4,23.2,29.75,NNW,338,0.0,0.0,95,0.00,,,0.00,meteohub,2013-01-16 03:27:00,
2013-01-16 03:32:00,25.5,24.3,29.75,ENE,68,0.0,0.0,95,0.00,,,0.00,meteohub,2013-01-16 03:32:00,
2013-01-16 03:37:00,26.2,25.0,29.75,East,90,0.0,2.0,95,0.00,,,0.00,meteohub,2013-01-16 03:37:00,
2013-01-16 03:42:00,27.0,25.7,29.75,NE,45,0.0,2.0,95,0.00,,,0.00,meteohub,2013-01-16 03:42:00,
2013-01-16 03:47:00,27.7,26.4,29.75,NNW,338,0.0,2.0,95,0.00,,,0.00,meteohub,2013-01-16 03:47:00,
2013-01-16 03:52:00,28.0,26.8,29.75,NNW,338,0.0,0.0,95,0.00,,,0.00,meteohub,2013-01-16 03:52:00,
2013-01-16 03:57:00,28.6,27.3,29.75,North,0,0.0,2.0,95,0.00,,,0.00,meteohub,2013-01-16 03:57:00,
2013-01-16 04:02:00,28.9,27.7,29.75,NNE,22,0.0,2.0,95,0.00,,,0.00,meteohub,2013-01-16 04:02:00,
2013-01-16 04:07:00,29.3,28.0,29.75,NNE,22,0.0,0.0,95,0.00,,,0.00,meteohub,2013-01-16 04:07:00,
2013-01-16 04:12:00,29.7,28.4,29.75,WNW,292,0.0,0.0,95,0.00,,,0.00,meteohub,2013-01-16 04:12:00,
2013-01-16 04:17:00,29.8,28.8,29.75,ENE,68,0.0,2.0,96,0.00,,,0.00,meteohub,2013-01-16 04:17:00,
2013-01-16 04:22:00,30.0,28.9,29.75,ENE,68,0.0,3.0,96,0.00,,,0.00,meteohub,2013-01-16 04:22:00,
2013-01-16 04:27:00,30.2,29.1,29.75,ENE,68,3.0,3.0,96,0.00,,,0.00,meteohub,2013-01-16 04:27:00,
2013-01-16 04:32:00,30.2,29.1,29.75,NE,45,0.0,4.0,96,0.00,,,0.00,meteohub,2013-01-16 04:32:00,
2013-01-16 04:37:00,30.2,29.1,29.75,ENE,68,0.0,4.0,96,0.00,,,0.00,meteohub,2013-01-16 04:37:00,
2013-01-16 04:42:00,30.2,29.1,29.75,East,90,3.0,4.0,96,0.00,,,0.00,meteohub,2013-01-16 04:42:00,
2013-01-16 04:47:00,30.2,29.1,29.75,ENE,68,0.0,4.0,96,0.00,,,0.00,meteohub,2013-01-16 04:47:00,
2013-01-16 04:52:00,30.2,29.1,29.75,NE,45,0.0,4.0,96,0.00,,,0.00,meteohub,2013-01-16 04:52:00,
2013-01-16 04:57:00,30.2,29.1,29.75,East,90,0.0,4.0,96,0.00,,,0.00,meteohub,2013-01-16 04:57:00,
2013-01-16 05:01:00,30.2,29.1,29.75,East,90,0.0,3.0,96,0.00,,,0.00,meteohub,2013-01-16 05:01:00,
2013-01-16 05:03:00,30.2,29.1,29.75,NNE,22,0.0,3.0,96,0.00,,,0.00,meteohub,2013-01-16 05:03:00,
2013-01-16 05:07:00,30.2,29.1,29.75,NE,45,0.0,3.0,96,0.00,,,0.00,meteohub,2013-01-16 05:07:00,
2013-01-16 05:09:00,30.4,29.3,29.75,NE,45,0.0,3.0,96,0.00,,,0.00,meteohub,2013-01-16 05:09:00,
2013-01-16 05:15:00,30.4,29.3,29.75,SE,135,0.0,2.0,96,0.00,,,0.00,meteohub,2013-01-16 05:15:00,
2013-01-16 05:21:00,30.4,29.3,29.75,East,90,0.0,3.0,96,0.00,,,0.00,meteohub,2013-01-16 05:21:00,
2013-01-16 05:27:00,30.4,29.3,29.75,ENE,68,0.0,3.0,96,0.00,,,0.00,meteohub,2013-01-16 05:27:00,
2013-01-16 05:32:00,30.4,29.3,29.75,NNE,22,0.0,3.0,96,0.00,,,0.00,meteohub,2013-01-16 05:32:00,
2013-01-16 05:37:00,30.4,29.3,29.75,WNW,292,0.0,3.0,96,0.00,,,0.00,meteohub,2013-01-16 05:37:00,
2013-01-16 05:42:00,30.2,29.5,29.75,NE,45,0.0,3.0,97,0.00,,,0.00,meteohub,2013-01-16 05:42:00,
2013-01-16 05:47:00,30.2,29.5,29.75,North,0,0.0,4.0,97,0.00,,,0.00,meteohub,2013-01-16 05:47:00,
2013-01-16 05:52:00,30.2,29.5,29.75,NNE,22,0.0,4.0,97,0.00,,,0.00,meteohub,2013-01-16 05:52:00,
2013-01-16 05:57:00,30.2,29.5,29.75,ENE,68,0.0,3.0,97,0.00,,,0.00,meteohub,2013-01-16 05:57:00,
2013-01-16 06:02:00,30.2,29.5,29.75,North,0,0.0,2.0,97,0.00,,,0.00,meteohub,2013-01-16 06:02:00,
2013-01-16 06:07:00,30.2,29.5,29.75,ENE,68,0.0,2.0,97,0.00,,,0.00,meteohub,2013-01-16 06:07:00,
2013-01-16 06:12:00,30.2,29.5,29.75,ENE,68,0.0,2.0,97,0.00,,,0.00,meteohub,2013-01-16 06:12:00,
2013-01-16 06:17:00,30.2,29.5,29.75,ENE,68,0.0,0.0,97,0.00,,,0.00,meteohub,2013-01-16 06:17:00,
2013-01-16 06:22:00,30.2,29.5,29.75,ENE,68,0.0,0.0,97,0.00,,,0.00,meteohub,2013-01-16 06:22:00,
2013-01-16 06:27:00,30.2,29.5,29.75,ENE,68,0.0,0.0,97,0.00,,,0.00,meteohub,2013-01-16 06:27:00,
2013-01-16 06:32:00,30.4,29.7,29.75,NE,45,0.0,3.0,97,0.00,,,0.00,meteohub,2013-01-16 06:32:00,
2013-01-16 06:37:00,30.2,29.5,29.75,ENE,68,0.0,3.0,97,0.00,,,0.00,meteohub,2013-01-16 06:37:00,
2013-01-16 06:42:00,30.2,29.5,29.75,ENE,68,0.0,4.0,97,0.00,,,0.00,meteohub,2013-01-16 06:42:00,
2013-01-16 06:47:00,30.2,29.5,29.75,NNE,22,0.0,4.0,97,0.00,,,0.00,meteohub,2013-01-16 06:47:00,
2013-01-16 06:52:00,30.2,29.5,29.78,NNE,22,0.0,4.0,97,0.00,,,0.00,meteohub,2013-01-16 06:52:00,
2013-01-16 06:57:00,30.2,29.5,29.78,ENE,68,0.0,2.0,97,0.00,,,0.00,meteohub,2013-01-16 06:57:00,
2013-01-16 07:02:00,30.2,29.5,29.78,WNW,292,0.0,2.0,97,0.00,,,0.00,meteohub,2013-01-16 07:02:00,
2013-01-16 07:07:00,30.2,29.5,29.78,NNE,22,0.0,2.0,97,0.00,,,0.00,meteohub,2013-01-16 07:07:00,
2013-01-16 07:12:00,30.2,29.5,29.78,NE,45,0.0,0.0,97,0.00,,,0.00,meteohub,2013-01-16 07:12:00,
2013-01-16 07:17:00,30.2,29.5,29.78,NNW,338,0.0,3.0,97,0.00,,,0.00,meteohub,2013-01-16 07:17:00,
2013-01-16 07:23:00,30.2,29.5,29.78,North,0,0.0,3.0,97,0.00,,,0.00,meteohub,2013-01-16 07:23:00,
2013-01-16 07:29:00,30.0,29.3,29.78,North,0,0.0,3.0,97,0.00,,,0.00,meteohub,2013-01-16 07:29:00,
2013-01-16 07:35:00,30.0,29.3,29.78,East,90,0.0,3.0,97,0.00,,,0.00,meteohub,2013-01-16 07:35:00,
2013-01-16 07:41:00,29.8,29.1,29.78,ENE,68,0.0,3.0,97,0.00,,,0.00,meteohub,2013-01-16 07:41:00,
2013-01-16 07:47:00,29.8,29.1,29.78,NE,45,0.0,4.0,97,0.00,,,0.00,meteohub,2013-01-16 07:47:00,
2013-01-16 07:52:00,29.8,29.1,29.78,NE,45,0.0,4.0,97,0.00,,,0.00,meteohub,2013-01-16 07:52:00,
2013-01-16 07:57:00,29.8,29.1,29.78,East,90,0.0,4.0,97,0.00,,,0.00,meteohub,2013-01-16 07:57:00,
2013-01-16 08:02:00,29.8,29.1,29.78,ENE,68,0.0,4.0,97,0.00,,,0.00,meteohub,2013-01-16 08:02:00,
2013-01-16 08:07:00,30.0,29.3,29.78,SSW,202,0.0,2.0,97,0.00,,,0.00,meteohub,2013-01-16 08:07:00,
2013-01-16 08:12:00,30.2,29.5,29.78,East,90,0.0,2.0,97,0.00,,,0.00,meteohub,2013-01-16 08:12:00,
2013-01-16 08:17:00,30.2,29.5,29.78,ESE,112,0.0,2.0,97,0.00,,,0.00,meteohub,2013-01-16 08:17:00,
2013-01-16 08:22:00,30.2,29.5,29.78,SSW,202,0.0,3.0,97,0.00,,,0.00,meteohub,2013-01-16 08:22:00,
2013-01-16 08:27:00,30.2,29.5,29.78,SW,225,0.0,3.0,97,0.00,,,0.00,meteohub,2013-01-16 08:27:00,
2013-01-16 08:32:00,30.4,29.7,29.78,NE,45,0.0,3.0,97,0.00,,,0.00,meteohub,2013-01-16 08:32:00,
2013-01-16 08:37:00,30.4,29.7,29.81,ENE,68,0.0,3.0,97,0.00,,,0.00,meteohub,2013-01-16 08:37:00,
2013-01-16 08:42:00,30.6,29.8,29.81,East,90,2.0,3.0,97,0.00,,,0.00,meteohub,2013-01-16 08:42:00,
2013-01-16 08:47:00,30.6,29.8,29.81,ENE,68,0.0,3.0,97,0.00,,,0.00,meteohub,2013-01-16 08:47:00,
2013-01-16 08:52:00,30.7,30.0,29.81,ESE,112,0.0,2.0,97,0.00,,,0.00,meteohub,2013-01-16 08:52:00,
2013-01-16 08:57:00,30.7,30.0,29.81,NNE,22,0.0,2.0,97,0.00,,,0.00,meteohub,2013-01-16 08:57:00,
2013-01-16 09:02:00,30.9,30.2,29.81,East,90,0.0,2.0,97,0.00,,,0.00,meteohub,2013-01-16 09:02:00,
2013-01-16 09:07:00,30.9,30.2,29.81,ESE,112,0.0,2.0,97,0.00,,,0.00,meteohub,2013-01-16 09:07:00,
2013-01-16 09:12:00,31.1,30.4,29.81,ENE,68,0.0,2.0,97,0.00,,,0.00,meteohub,2013-01-16 09:12:00,
2013-01-16 09:17:00,31.1,30.4,29.81,NNW,338,2.0,0.0,97,0.00,,,0.00,meteohub,2013-01-16 09:17:00,
2013-01-16 09:22:00,31.1,30.4,29.81,NE,45,0.0,3.0,97,0.00,,,0.00,meteohub,2013-01-16 09:22:00,
2013-01-16 09:28:00,31.3,30.6,29.81,East,90,0.0,3.0,97,0.00,,,0.00,meteohub,2013-01-16 09:28:00,
2013-01-16 09:34:00,31.3,30.6,29.81,NE,45,0.0,3.0,97,0.00,,,0.00,meteohub,2013-01-16 09:34:00,
2013-01-16 09:40:00,31.3,30.6,29.81,ESE,112,0.0,2.0,97,0.00,,,0.00,meteohub,2013-01-16 09:40:00,
2013-01-16 09:46:00,31.3,30.6,29.81,South,180,0.0,2.0,97,0.00,,,0.00,meteohub,2013-01-16 09:46:00,
2013-01-16 09:52:00,31.6,30.9,29.81,ESE,112,0.0,2.0,97,0.00,,,0.00,meteohub,2013-01-16 09:52:00,
2013-01-16 09:57:00,31.8,31.1,29.81,East,90,0.0,2.0,97,0.00,,,0.00,meteohub,2013-01-16 09:57:00,
2013-01-16 10:02:00,31.8,31.1,29.81,NW,315,0.0,0.0,97,0.00,,,0.00,meteohub,2013-01-16 10:02:00,
2013-01-16 10:08:00,31.8,31.1,29.81,NE,45,0.0,3.0,97,0.00,,,0.00,meteohub,2013-01-16 10:08:00,
2013-01-16 10:14:00,32.0,30.9,29.81,NNE,22,0.0,3.0,96,0.00,,,0.00,meteohub,2013-01-16 10:14:00,
2013-01-16 10:20:00,31.8,30.7,29.81,ENE,68,3.0,3.0,96,0.00,,,0.00,meteohub,2013-01-16 10:20:00,
2013-01-16 10:26:00,31.8,30.7,29.81,NE,45,0.0,3.0,96,0.00,,,0.00,meteohub,2013-01-16 10:26:00,
2013-01-16 10:32:00,31.8,30.7,29.81,SSW,202,0.0,3.0,96,0.00,,,0.00,meteohub,2013-01-16 10:32:00,
2013-01-16 10:37:00,32.2,31.1,29.81,SSE,158,0.0,3.0,96,0.00,,,0.00,meteohub,2013-01-16 10:37:00,
2013-01-16 10:42:00,32.4,31.3,29.81,ENE,68,0.0,3.0,96,0.00,,,0.00,meteohub,2013-01-16 10:42:00,
2013-01-16 10:47:00,32.4,31.1,29.81,ESE,112,0.0,2.0,95,0.00,,,0.00,meteohub,2013-01-16 10:47:00,
2013-01-16 10:52:00,32.2,30.9,29.81,ENE,68,0.0,0.0,95,0.00,,,0.00,meteohub,2013-01-16 10:52:00,
2013-01-16 10:57:00,32.4,31.1,29.81,ENE,68,0.0,3.0,95,0.00,,,0.00,meteohub,2013-01-16 10:57:00,
2013-01-16 11:02:00,32.5,31.3,29.81,SE,135,0.0,3.0,95,0.00,,,0.00,meteohub,2013-01-16 11:02:00,
2013-01-16 11:07:00,32.7,31.5,29.81,South,180,0.0,3.0,95,0.00,,,0.00,meteohub,2013-01-16 11:07:00,
2013-01-16 11:12:00,32.9,31.3,29.81,SSE,158,0.0,3.0,94,0.00,,,0.00,meteohub,2013-01-16 11:12:00,
2013-01-16 11:17:00,33.1,31.5,29.81,SW,225,0.0,0.0,94,0.00,,,0.00,meteohub,2013-01-16 11:17:00,
2013-01-16 11:22:00,33.4,31.8,29.81,ENE,68,0.0,0.0,94,0.00,,,0.00,meteohub,2013-01-16 11:22:00,
2013-01-16 11:27:00,33.6,31.8,29.81,South,180,0.0,0.0,93,0.00,,,0.00,meteohub,2013-01-16 11:27:00,
2013-01-16 11:32:00,34.5,32.7,29.81,ENE,68,0.0,0.0,93,0.00,,,0.00,meteohub,2013-01-16 11:32:00,
2013-01-16 11:37:00,35.4,33.3,29.81,East,90,0.0,0.0,92,0.00,,,0.00,meteohub,2013-01-16 11:37:00,
2013-01-16 11:42:00,36.1,33.8,29.81,SSE,158,0.0,3.0,91,0.00,,,0.00,meteohub,2013-01-16 11:42:00,
2013-01-16 11:47:00,36.1,33.3,29.81,SSE,158,0.0,4.0,89,0.00,,,0.00,meteohub,2013-01-16 11:47:00,
2013-01-16 11:52:00,36.0,32.7,29.81,NNE,22,0.0,4.0,88,0.00,,,0.00,meteohub,2013-01-16 11:52:00,
2013-01-16 11:57:00,35.8,31.6,29.81,NE,45,0.0,4.0,85,0.00,,,0.00,meteohub,2013-01-16 11:57:00,
2013-01-16 12:02:00,35.6,30.9,29.81,WSW,248,0.0,3.0,83,0.00,,,0.00,meteohub,2013-01-16 12:02:00,
2013-01-16 12:07:00,35.1,29.8,29.81,NE,45,0.0,3.0,81,0.00,,,0.00,meteohub,2013-01-16 12:07:00,
2013-01-16 12:12:00,34.5,28.8,29.81,North,0,3.0,4.0,79,0.00,,,0.00,meteohub,2013-01-16 12:12:00,
2013-01-16 12:17:00,34.2,28.0,29.81,NNW,338,0.0,4.0,78,0.00,,,0.00,meteohub,2013-01-16 12:17:00,
2013-01-16 12:22:00,34.0,27.5,29.81,SSE,158,0.0,4.0,77,0.00,,,0.00,meteohub,2013-01-16 12:22:00,
2013-01-16 12:27:00,33.8,27.1,29.81,SSE,158,0.0,3.0,76,0.00,,,0.00,meteohub,2013-01-16 12:27:00,
2013-01-16 12:32:00,34.9,27.9,29.81,NE,45,0.0,3.0,75,0.00,,,0.00,meteohub,2013-01-16 12:32:00,
2013-01-16 12:37:00,36.3,28.9,29.81,North,0,0.0,4.0,74,0.00,,,0.00,meteohub,2013-01-16 12:37:00,
2013-01-16 12:42:00,36.5,28.4,29.81,North,0,2.0,4.0,72,0.00,,,0.00,meteohub,2013-01-16 12:42:00,
2013-01-16 12:47:00,35.8,25.9,29.81,NNE,22,0.0,4.0,67,0.00,,,0.00,meteohub,2013-01-16 12:47:00,
2013-01-16 12:52:00,35.4,24.8,29.81,NNE,22,0.0,4.0,65,0.00,,,0.00,meteohub,2013-01-16 12:52:00,
2013-01-16 12:57:00,35.4,24.4,29.81,North,0,0.0,4.0,64,0.00,,,0.00,meteohub,2013-01-16 12:57:00,
2013-01-16 13:02:00,36.1,25.2,29.81,North,0,2.0,4.0,64,0.00,,,0.00,meteohub,2013-01-16 13:02:00,
2013-01-16 13:07:00,36.5,24.8,29.81,NNE,22,0.0,4.0,62,0.00,,,0.00,meteohub,2013-01-16 13:07:00,
2013-01-16 13:12:00,36.5,24.4,29.81,NNW,338,0.0,4.0,61,0.00,,,0.00,meteohub,2013-01-16 13:12:00,
2013-01-16 13:18:00,36.3,23.0,29.81,NNE,22,3.0,4.0,58,0.00,,,0.00,meteohub,2013-01-16 13:18:00,
2013-01-16 13:24:00,36.7,23.4,29.81,North,0,0.0,4.0,58,0.00,,,0.00,meteohub,2013-01-16 13:24:00,
2013-01-16 13:30:00,36.5,22.8,29.81,NNE,22,4.0,4.0,57,0.00,,,0.00,meteohub,2013-01-16 13:30:00,
2013-01-16 13:36:00,36.1,22.8,29.81,North,0,0.0,4.0,58,0.00,,,0.00,meteohub,2013-01-16 13:36:00,
2013-01-16 13:42:00,36.1,22.8,29.81,North,0,4.0,4.0,58,0.00,,,0.00,meteohub,2013-01-16 13:42:00,
2013-01-16 13:47:00,36.1,22.8,29.81,North,0,0.0,5.0,58,0.00,,,0.00,meteohub,2013-01-16 13:47:00,
2013-01-16 13:52:00,36.1,22.8,29.81,NNW,338,4.0,5.0,58,0.00,,,0.00,meteohub,2013-01-16 13:52:00,
2013-01-16 13:57:00,36.1,22.8,29.81,North,0,0.0,4.0,58,0.00,,,0.00,meteohub,2013-01-16 13:57:00,
2013-01-16 14:02:00,35.6,22.3,29.81,NNE,22,0.0,4.0,58,0.00,,,0.00,meteohub,2013-01-16 14:02:00,
2013-01-16 14:07:00,35.4,22.1,29.81,SE,135,0.0,4.0,58,0.00,,,0.00,meteohub,2013-01-16 14:07:00,
2013-01-16 14:12:00,35.1,22.3,29.81,NE,45,0.0,4.0,59,0.00,,,0.00,meteohub,2013-01-16 14:12:00,
2013-01-16 14:17:00,34.9,22.5,29.81,North,0,3.0,4.0,60,0.00,,,0.00,meteohub,2013-01-16 14:17:00,
2013-01-16 14:22:00,34.5,22.5,29.84,NNW,338,0.0,4.0,61,0.00,,,0.00,meteohub,2013-01-16 14:22:00,
2013-01-16 14:27:00,34.3,22.6,29.84,NNW,338,0.0,4.0,62,0.00,,,0.00,meteohub,2013-01-16 14:27:00,
2013-01-16 14:32:00,34.2,23.0,29.84,North,0,3.0,4.0,63,0.00,,,0.00,meteohub,2013-01-16 14:32:00,
2013-01-16 14:37:00,34.2,23.7,29.84,North,0,2.0,4.0,65,0.00,,,0.00,meteohub,2013-01-16 14:37:00,
2013-01-16 14:42:00,34.2,23.7,29.84,East,90,3.0,5.0,65,0.00,,,0.00,meteohub,2013-01-16 14:42:00,
2013-01-16 14:47:00,34.0,23.9,29.84,NE,45,0.0,5.0,66,0.00,,,0.00,meteohub,2013-01-16 14:47:00,
2013-01-16 14:52:00,34.0,24.3,29.84,NNE,22,4.0,5.0,67,0.00,,,0.00,meteohub,2013-01-16 14:52:00,
2013-01-16 14:57:00,34.0,24.3,29.84,North,0,0.0,4.0,67,0.00,,,0.00,meteohub,2013-01-16 14:57:00,
2013-01-16 15:02:00,34.0,24.6,29.84,North,0,0.0,4.0,68,0.00,,,0.00,meteohub,2013-01-16 15:02:00,
2013-01-16 15:07:00,33.8,24.4,29.84,NNW,338,0.0,4.0,68,0.00,,,0.00,meteohub,2013-01-16 15:07:00,
2013-01-16 15:12:00,33.6,24.6,29.84,North,0,0.0,6.0,69,0.00,,,0.00,meteohub,2013-01-16 15:12:00,
2013-01-16 15:17:00,33.6,24.6,29.84,North,0,0.0,6.0,69,0.00,,,0.00,meteohub,2013-01-16 15:17:00,
2013-01-16 15:22:00,33.4,24.8,29.84,North,0,0.0,6.0,70,0.00,,,0.00,meteohub,2013-01-16 15:22:00,
2013-01-16 15:27:00,33.3,24.6,29.84,NE,45,0.0,4.0,70,0.00,,,0.00,meteohub,2013-01-16 15:27:00,
2013-01-16 15:32:00,33.1,24.8,29.84,NNE,22,0.0,4.0,71,0.00,,,0.00,meteohub,2013-01-16 15:32:00,
2013-01-16 15:37:00,32.9,24.6,29.84,North,0,3.0,4.0,71,0.00,,,0.00,meteohub,2013-01-16 15:37:00,
2013-01-16 15:42:00,32.7,24.8,29.84,NE,45,0.0,4.0,72,0.00,,,0.00,meteohub,2013-01-16 15:42:00,
2013-01-16 15:47:00,32.5,24.6,29.84,NW,315,0.0,4.0,72,0.00,,,0.00,meteohub,2013-01-16 15:47:00,
2013-01-16 15:52:00,32.2,24.4,29.84,North,0,0.0,4.0,73,0.00,,,0.00,meteohub,2013-01-16 15:52:00,
2013-01-16 15:57:00,32.0,24.6,29.84,North,0,2.0,4.0,74,0.00,,,0.00,meteohub,2013-01-16 15:57:00,
2013-01-16 16:02:00,31.8,24.4,29.84,North,0,0.0,3.0,74,0.00,,,0.00,meteohub,2013-01-16 16:02:00,
2013-01-16 16:07:00,31.5,24.4,29.87,North,0,0.0,3.0,75,0.00,,,0.00,meteohub,2013-01-16 16:07:00,
2013-01-16 16:12:00,31.1,24.1,29.87,North,0,0.0,3.0,75,0.00,,,0.00,meteohub,2013-01-16 16:12:00,
2013-01-16 16:17:00,30.9,24.3,29.87,North,0,0.0,3.0,76,0.00,,,0.00,meteohub,2013-01-16 16:17:00,
2013-01-16 16:22:00,30.9,24.6,29.87,North,0,0.0,3.0,77,0.00,,,0.00,meteohub,2013-01-16 16:22:00,
2013-01-16 16:27:00,30.7,24.6,29.87,NNE,22,0.0,3.0,78,0.00,,,0.00,meteohub,2013-01-16 16:27:00,
2013-01-16 16:32:00,30.6,24.6,29.87,NNE,22,0.0,3.0,78,0.00,,,0.00,meteohub,2013-01-16 16:32:00,
2013-01-16 16:37:00,30.4,24.6,29.87,NNE,22,0.0,3.0,79,0.00,,,0.00,meteohub,2013-01-16 16:37:00,
2013-01-16 16:42:00,30.4,24.6,29.87,NNE,22,0.0,3.0,79,0.00,,,0.00,meteohub,2013-01-16 16:42:00,
2013-01-16 16:47:00,30.4,25.0,29.87,North,0,0.0,3.0,80,0.00,,,0.00,meteohub,2013-01-16 16:47:00,
2013-01-16 16:52:00,30.2,25.2,29.87,North,0,0.0,3.0,81,0.00,,,0.00,meteohub,2013-01-16 16:52:00,
2013-01-16 16:57:00,30.2,25.3,29.87,North,0,2.0,3.0,82,0.00,,,0.00,meteohub,2013-01-16 16:57:00,
2013-01-16 17:02:00,30.2,25.7,29.87,NNE,22,0.0,3.0,83,0.00,,,0.00,meteohub,2013-01-16 17:02:00,
2013-01-16 17:07:00,30.2,25.7,29.87,NE,45,0.0,2.0,83,0.00,,,0.00,meteohub,2013-01-16 17:07:00,
2013-01-16 17:12:00,30.2,25.9,29.87,North,0,0.0,2.0,84,0.00,,,0.00,meteohub,2013-01-16 17:12:00,
2013-01-16 17:17:00,30.0,25.7,29.87,North,0,0.0,0.0,84,0.00,,,0.00,meteohub,2013-01-16 17:17:00,
2013-01-16 17:22:00,30.0,26.1,29.87,North,0,0.0,0.0,85,0.00,,,0.00,meteohub,2013-01-16 17:22:00,
2013-01-16 17:27:00,29.8,25.9,29.87,North,0,0.0,0.0,85,0.00,,,0.00,meteohub,2013-01-16 17:27:00,
2013-01-16 17:32:00,29.7,25.7,29.87,North,0,0.0,0.0,85,0.00,,,0.00,meteohub,2013-01-16 17:32:00,
2013-01-16 17:37:00,29.3,25.3,29.87,North,0,0.0,0.0,85,0.00,,,0.00,meteohub,2013-01-16 17:37:00,
2013-01-16 17:42:00,29.3,25.7,29.87,North,0,0.0,0.0,86,0.00,,,0.00,meteohub,2013-01-16 17:42:00,
2013-01-16 17:47:00,29.1,25.5,29.87,North,0,0.0,0.0,86,0.00,,,0.00,meteohub,2013-01-16 17:47:00,
2013-01-16 17:52:00,29.1,25.5,29.90,North,0,0.0,0.0,86,0.00,,,0.00,meteohub,2013-01-16 17:52:00,
2013-01-16 17:57:00,29.1,25.5,29.90,NNE,22,0.0,0.0,86,0.00,,,0.00,meteohub,2013-01-16 17:57:00,
2013-01-16 18:02:00,29.1,25.7,29.90,NNE,22,0.0,0.0,87,0.00,,,0.00,meteohub,2013-01-16 18:02:00,
2013-01-16 18:07:00,29.1,25.7,29.90,North,0,0.0,3.0,87,0.00,,,0.00,meteohub,2013-01-16 18:07:00,
2013-01-16 18:12:00,28.9,25.5,29.90,North,0,0.0,3.0,87,0.00,,,0.00,meteohub,2013-01-16 18:12:00,
2013-01-16 18:17:00,28.8,25.7,29.90,North,0,0.0,3.0,88,0.00,,,0.00,meteohub,2013-01-16 18:17:00,
2013-01-16 18:22:00,28.6,25.5,29.93,North,0,0.0,0.0,88,0.00,,,0.00,meteohub,2013-01-16 18:22:00,
2013-01-16 18:27:00,28.6,25.5,29.93,North,0,0.0,0.0,88,0.00,,,0.00,meteohub,2013-01-16 18:27:00,
2013-01-16 18:33:00,28.4,25.3,29.90,North,0,0.0,0.0,88,0.00,,,0.00,meteohub,2013-01-16 18:33:00,
2013-01-16 18:39:00,28.4,25.5,29.90,North,0,0.0,0.0,89,0.00,,,0.00,meteohub,2013-01-16 18:39:00,
2013-01-16 18:45:00,28.4,25.5,29.90,North,0,0.0,0.0,89,0.00,,,0.00,meteohub,2013-01-16 18:45:00,
2013-01-16 18:51:00,28.4,25.5,29.90,North,0,0.0,0.0,89,0.00,,,0.00,meteohub,2013-01-16 18:51:00,
2013-01-16 18:57:00,28.6,25.7,29.90,North,0,0.0,0.0,89,0.00,,,0.00,meteohub,2013-01-16 18:57:00,
2013-01-16 19:02:00,28.8,25.9,29.90,North,0,0.0,0.0,89,0.00,,,0.00,meteohub,2013-01-16 19:02:00,
2013-01-16 19:07:00,28.8,25.9,29.93,North,0,0.0,0.0,89,0.00,,,0.00,meteohub,2013-01-16 19:07:00,
2013-01-16 19:12:00,28.8,25.9,29.93,North,0,0.0,0.0,89,0.00,,,0.00,meteohub,2013-01-16 19:12:00,
2013-01-16 19:17:00,28.8,26.2,29.93,North,0,0.0,0.0,90,0.00,,,0.00,meteohub,2013-01-16 19:17:00,
2013-01-16 19:23:00,28.8,26.2,29.90,North,0,0.0,0.0,90,0.00,,,0.00,meteohub,2013-01-16 19:23:00,
2013-01-16 19:29:00,28.9,26.4,29.90,North,0,0.0,0.0,90,0.00,,,0.00,meteohub,2013-01-16 19:29:00,
2013-01-16 19:35:00,28.8,26.2,29.93,North,0,0.0,3.0,90,0.00,,,0.00,meteohub,2013-01-16 19:35:00,
2013-01-16 19:41:00,28.6,26.1,29.93,North,0,0.0,3.0,90,0.00,,,0.00,meteohub,2013-01-16 19:41:00,
2013-01-16 19:47:00,28.6,26.1,29.93,North,0,0.0,3.0,90,0.00,,,0.00,meteohub,2013-01-16 19:47:00,
2013-01-16 19:52:00,28.2,25.9,29.93,North,0,0.0,0.0,91,0.00,,,0.00,meteohub,2013-01-16 19:52:00,
2013-01-16 19:57:00,27.9,25.5,29.93,North,0,0.0,0.0,91,0.00,,,0.00,meteohub,2013-01-16 19:57:00,
2013-01-16 20:02:00,27.7,25.3,29.93,North,0,0.0,0.0,91,0.00,,,0.00,meteohub,2013-01-16 20:02:00,
2013-01-16 20:07:00,27.5,25.2,29.93,North,0,0.0,0.0,91,0.00,,,0.00,meteohub,2013-01-16 20:07:00,
2013-01-16 20:12:00,27.3,25.0,29.93,North,0,0.0,0.0,91,0.00,,,0.00,meteohub,2013-01-16 20:12:00,
2013-01-16 20:17:00,27.1,24.8,29.93,North,0,0.0,0.0,91,0.00,,,0.00,meteohub,2013-01-16 20:17:00,
2013-01-16 20:22:00,27.0,24.6,29.93,North,0,0.0,0.0,91,0.00,,,0.00,meteohub,2013-01-16 20:22:00,
2013-01-16 20:28:00,26.8,24.4,29.93,North,0,0.0,0.0,91,0.00,,,0.00,meteohub,2013-01-16 20:28:00,
2013-01-16 20:34:00,26.4,24.1,29.93,North,0,0.0,0.0,91,0.00,,,0.00,meteohub,2013-01-16 20:34:00,
2013-01-16 20:40:00,26.2,23.9,29.93,North,0,0.0,0.0,91,0.00,,,0.00,meteohub,2013-01-16 20:40:00,
2013-01-16 20:46:00,26.1,23.7,29.93,North,0,0.0,0.0,91,0.00,,,0.00,meteohub,2013-01-16 20:46:00,
2013-01-16 20:52:00,26.1,23.7,29.93,North,0,0.0,0.0,91,0.00,,,0.00,meteohub,2013-01-16 20:52:00,
2013-01-16 20:57:00,25.7,23.4,29.93,North,0,0.0,0.0,91,0.00,,,0.00,meteohub,2013-01-16 20:57:00,
2013-01-16 21:02:00,25.5,23.2,29.93,North,0,0.0,0.0,91,0.00,,,0.00,meteohub,2013-01-16 21:02:00,
2013-01-16 21:07:00,25.5,23.2,29.93,North,0,0.0,0.0,91,0.00,,,0.00,meteohub,2013-01-16 21:07:00,
2013-01-16 21:12:00,25.5,23.2,29.93,North,0,0.0,0.0,91,0.00,,,0.00,meteohub,2013-01-16 21:12:00,
2013-01-16 21:17:00,25.5,23.2,29.93,North,0,0.0,0.0,91,0.00,,,0.00,meteohub,2013-01-16 21:17:00,
2013-01-16 21:22:00,25.5,23.2,29.93,North,0,0.0,0.0,91,0.00,,,0.00,meteohub,2013-01-16 21:22:00,
2013-01-16 21:27:00,25.7,23.7,29.93,North,0,0.0,0.0,92,0.00,,,0.00,meteohub,2013-01-16 21:27:00,
2013-01-16 21:32:00,25.9,23.9,29.93,North,0,0.0,0.0,92,0.00,,,0.00,meteohub,2013-01-16 21:32:00,
2013-01-16 21:37:00,26.1,24.1,29.93,North,0,0.0,0.0,92,0.00,,,0.00,meteohub,2013-01-16 21:37:00,
2013-01-16 21:42:00,26.1,24.1,29.93,North,0,0.0,0.0,92,0.00,,,0.00,meteohub,2013-01-16 21:42:00,
2013-01-16 21:47:00,26.1,24.1,29.93,North,0,0.0,0.0,92,0.00,,,0.00,meteohub,2013-01-16 21:47:00,
2013-01-16 21:52:00,25.9,23.9,29.93,North,0,0.0,0.0,92,0.00,,,0.00,meteohub,2013-01-16 21:52:00,
2013-01-16 21:57:00,26.1,24.1,29.93,North,0,0.0,0.0,92,0.00,,,0.00,meteohub,2013-01-16 21:57:00,
2013-01-16 22:03:00,26.1,24.1,29.93,North,0,0.0,0.0,92,0.00,,,0.00,meteohub,2013-01-16 22:03:00,
2013-01-16 22:09:00,26.1,24.1,29.93,North,0,0.0,0.0,92,0.00,,,0.00,meteohub,2013-01-16 22:09:00,
2013-01-16 22:15:00,26.1,24.3,29.93,North,0,0.0,0.0,93,0.00,,,0.00,meteohub,2013-01-16 22:15:00,
2013-01-16 22:21:00,26.1,24.3,29.93,North,0,0.0,0.0,93,0.00,,,0.00,meteohub,2013-01-16 22:21:00,
2013-01-16 22:27:00,25.9,24.1,29.93,North,0,0.0,0.0,93,0.00,,,0.00,meteohub,2013-01-16 22:27:00,
2013-01-16 22:32:00,25.9,24.1,29.93,North,0,0.0,0.0,93,0.00,,,0.00,meteohub,2013-01-16 22:32:00,
2013-01-16 22:37:00,25.7,23.9,29.93,North,0,0.0,0.0,93,0.00,,,0.00,meteohub,2013-01-16 22:37:00,
2013-01-16 22:42:00,25.5,23.7,29.93,North,0,0.0,0.0,93,0.00,,,0.00,meteohub,2013-01-16 22:42:00,
2013-01-16 22:47:00,25.5,23.7,29.93,North,0,0.0,0.0,93,0.00,,,0.00,meteohub,2013-01-16 22:47:00,
2013-01-16 22:52:00,25.3,23.5,29.93,North,0,0.0,0.0,93,0.00,,,0.00,meteohub,2013-01-16 22:52:00,
2013-01-16 22:58:00,25.3,23.5,29.93,North,0,0.0,0.0,93,0.00,,,0.00,meteohub,2013-01-16 22:58:00,
2013-01-16 23:04:00,25.5,23.7,29.93,North,0,0.0,0.0,93,0.00,,,0.00,meteohub,2013-01-16 23:04:00,
2013-01-16 23:10:00,25.9,24.1,29.93,North,0,0.0,0.0,93,0.00,,,0.00,meteohub,2013-01-16 23:10:00,
2013-01-16 23:16:00,26.1,24.6,29.93,North,0,0.0,0.0,94,0.00,,,0.00,meteohub,2013-01-16 23:16:00,
2013-01-16 23:22:00,26.1,24.6,29.93,North,0,0.0,0.0,94,0.00,,,0.00,meteohub,2013-01-16 23:22:00,
2013-01-16 23:27:00,26.4,25.0,29.93,North,0,0.0,0.0,94,0.00,,,0.00,meteohub,2013-01-16 23:27:00,
2013-01-16 23:32:00,26.6,25.2,29.93,North,0,0.0,0.0,94,0.00,,,0.00,meteohub,2013-01-16 23:32:00,
2013-01-16 23:37:00,26.6,25.2,29.93,North,0,0.0,0.0,94,0.00,,,0.00,meteohub,2013-01-16 23:37:00,
2013-01-16 23:42:00,26.8,25.3,29.93,North,0,0.0,0.0,94,0.00,,,0.00,meteohub,2013-01-16 23:42:00,
2013-01-16 23:47:00,26.8,25.3,29.93,North,0,0.0,0.0,94,0.00,,,0.00,meteohub,2013-01-16 23:47:00,
2013-01-16 23:52:00,26.8,25.3,29.96,North,0,0.0,0.0,94,0.00,,,0.00,meteohub,2013-01-16 23:52:00,
2013-01-16 23:57:00,27.0,25.5,29.96,North,0,0.0,0.0,94,0.00,,,0.00,meteohub,2013-01-16 23:57:00,